Time,TemperatureF,DewpointF,PressureIn,WindDirection,WindDirectionDegrees,WindSpeedMPH,WindSpeedGustMPH,Humidity,HourlyPrecipIn,Conditions,Clouds,dailyrainin,SoftwareType,DateUTC
2013-10-23 00:00:00,32.4,27.3,30.17,NW,315,1.1,1.1,81,0.00,,,0.00,WUHU216HW,2013-10-23 05:00:00,
2013-10-23 00:05:00,32.4,27.3,30.17,NW,315,1.1,1.1,81,0.00,,,0.00,WUHU216HW,2013-10-23 05:05:00,
2013-10-23 00:30:00,32.6,27.5,30.16,NW,315,0.4,0.4,81,0.00,,,0.00,WUHU216HW,2013-10-23 05:30:00,
2013-10-23 00:35:00,32.6,27.5,30.16,NW,315,0.4,0.4,81,0.00,,,0.00,WUHU216HW,2013-10-23 05:35:00,
2013-10-23 01:00:00,32.4,27.3,30.16,NW,315,0.0,0.0,81,0.00,,,0.00,WUHU216HW,2013-10-23 06:00:00,
2013-10-23 01:05:00,32.4,27.3,30.16,NW,315,0.0,0.0,81,0.00,,,0.00,WUHU216HW,2013-10-23 06:05:00,
2013-10-23 01:30:00,32.4,27.3,30.16,NW,315,0.0,0.0,81,0.00,,,0.00,WUHU216HW,2013-10-23 06:30:00,
2013-10-23 01:35:00,32.4,27.3,30.16,NW,315,0.0,0.0,81,0.00,,,0.00,WUHU216HW,2013-10-23 06:35:00,
2013-10-23 02:00:00,32.2,27.1,30.16,NW,315,0.0,0.0,81,0.00,,,0.00,WUHU216HW,2013-10-23 07:00:00,
2013-10-23 02:05:00,32.2,27.1,30.16,NW,315,0.0,0.0,81,0.00,,,0.00,WUHU216HW,2013-10-23 07:05:00,
2013-10-23 02:30:00,31.7,26.8,30.15,NW,315,0.4,0.4,82,0.00,,,0.00,WUHU216HW,2013-10-23 07:30:00,
2013-10-23 02:35:00,31.7,26.8,30.15,NW,315,0.4,0.4,82,0.00,,,0.00,WUHU216HW,2013-10-23 07:35:00,
2013-10-23 03:00:00,31.5,26.6,30.14,NW,315,0.9,0.9,82,0.00,,,0.00,WUHU216HW,2013-10-23 08:00:00,
2013-10-23 03:05:00,31.5,26.6,30.14,NW,315,0.9,0.9,82,0.00,,,0.00,WUHU216HW,2013-10-23 08:05:00,
2013-10-23 03:30:00,31.5,27.0,30.14,NW,315,0.0,0.0,83,0.00,,,0.00,WUHU216HW,2013-10-23 08:30:00,
2013-10-23 03:35:00,31.5,27.0,30.14,NW,315,0.0,0.0,83,0.00,,,0.00,WUHU216HW,2013-10-23 08:35:00,
2013-10-23 04:00:00,31.3,26.5,30.14,NW,315,0.0,0.0,82,0.00,,,0.00,WUHU216HW,2013-10-23 09:00:00,
2013-10-23 04:05:00,31.3,26.5,30.14,NW,315,0.0,0.0,82,0.00,,,0.00,WUHU216HW,2013-10-23 09:05:00,
2013-10-23 04:30:00,31.3,26.5,30.14,NW,315,0.0,0.0,82,0.00,,,0.00,WUHU216HW,2013-10-23 09:30:00,
2013-10-23 04:35:00,31.3,26.5,30.14,NW,315,0.0,0.0,82,0.00,,,0.00,WUHU216HW,2013-10-23 09:35:00,
2013-10-23 05:00:00,31.1,26.3,30.14,NW,315,0.7,0.7,82,0.00,,,0.00,WUHU216HW,2013-10-23 10:00:00,
2013-10-23 05:05:00,31.1,26.3,30.14,NW,315,0.7,0.7,82,0.00,,,0.00,WUHU216HW,2013-10-23 10:05:00,
2013-10-23 05:30:00,31.0,26.1,30.13,NW,315,0.7,0.7,82,0.00,,,0.00,WUHU216HW,2013-10-23 10:30:00,
2013-10-23 05:35:00,31.0,26.1,30.13,NW,315,0.7,0.7,82,0.00,,,0.00,WUHU216HW,2013-10-23 10:35:00,
2013-10-23 06:00:00,30.8,25.7,30.14,NW,315,0.2,0.2,81,0.00,,,0.00,WUHU216HW,2013-10-23 11:00:00,
2013-10-23 06:05:00,30.8,25.7,30.14,NW,315,0.2,0.2,81,0.00,,,0.00,WUHU216HW,2013-10-23 11:05:00,
2013-10-23 06:30:00,30.6,25.5,30.14,NW,315,0.2,0.2,81,0.00,,,0.00,WUHU216HW,2013-10-23 11:30:00,
2013-10-23 06:35:00,30.6,25.5,30.14,NW,315,0.2,0.2,81,0.00,,,0.00,WUHU216HW,2013-10-23 11:35:00,
2013-10-23 07:00:00,30.1,24.9,30.14,NW,315,0.0,0.0,81,0.00,,,0.00,WUHU216HW,2013-10-23 12:00:00,
2013-10-23 07:05:00,30.1,24.9,30.14,NW,315,0.0,0.0,81,0.00,,,0.00,WUHU216HW,2013-10-23 12:05:00,
2013-10-23 07:30:00,29.2,24.0,30.14,NW,315,0.0,0.0,81,0.00,,,0.00,WUHU216HW,2013-10-23 12:30:00,
2013-10-23 07:35:00,29.2,24.0,30.14,NW,315,0.0,0.0,81,0.00,,,0.00,WUHU216HW,2013-10-23 12:35:00,
2013-10-23 07:40:00,29.2,24.0,30.14,NW,315,0.0,0.0,81,0.00,,,0.00,WUHU216HW,2013-10-23 12:40:00,
2013-10-23 08:00:00,29.5,24.7,30.14,NW,315,0.0,0.0,82,0.00,,,0.00,WUHU216HW,2013-10-23 13:00:00,
2013-10-23 08:05:00,29.5,24.7,30.14,NW,315,0.0,0.0,82,0.00,,,0.00,WUHU216HW,2013-10-23 13:05:00,
2013-10-23 08:10:00,29.5,24.7,30.14,NW,315,0.0,0.0,82,0.00,,,0.00,WUHU216HW,2013-10-23 13:10:00,
2013-10-23 08:30:00,30.8,25.9,30.14,NW,315,0.2,0.2,82,0.00,,,0.00,WUHU216HW,2013-10-23 13:30:00,
2013-10-23 08:35:00,30.8,25.9,30.14,NW,315,0.2,0.2,82,0.00,,,0.00,WUHU216HW,2013-10-23 13:35:00,
2013-10-23 09:00:00,32.8,27.9,30.14,West,270,0.4,0.4,82,0.00,,,0.00,WUHU216HW,2013-10-23 14:00:00,
2013-10-23 09:05:00,32.8,27.9,30.14,West,270,0.2,0.4,82,0.00,,,0.00,WUHU216HW,2013-10-23 14:05:00,
2013-10-23 09:10:00,32.8,27.9,30.14,West,270,0.2,0.2,82,0.00,,,0.00,WUHU216HW,2013-10-23 14:10:00,
2013-10-23 09:30:00,33.1,27.9,30.15,NNW,338,1.6,1.6,81,0.00,,,0.00,WUHU216HW,2013-10-23 14:30:00,
2013-10-23 09:35:00,33.1,27.9,30.15,NNW,338,1.6,1.6,81,0.00,,,0.00,WUHU216HW,2013-10-23 14:35:00,
2013-10-23 10:00:00,33.8,28.5,30.15,NNW,338,1.6,1.6,81,0.00,,,0.00,WUHU216HW,2013-10-23 15:00:00,
2013-10-23 10:05:00,33.8,28.5,30.15,NNW,338,3.4,3.4,81,0.00,,,0.00,WUHU216HW,2013-10-23 15:05:00,
2013-10-23 10:10:00,33.8,28.5,30.15,NNW,338,3.4,3.4,81,0.00,,,0.00,WUHU216HW,2013-10-23 15:10:00,
2013-10-23 10:30:00,34.4,28.8,30.15,NNW,338,2.0,2.0,80,0.01,,,0.00,WUHU216HW,2013-10-23 15:30:00,
2013-10-23 10:35:00,34.4,28.8,30.15,NNW,338,2.0,2.0,80,0.01,,,0.00,WUHU216HW,2013-10-23 15:35:00,
2013-10-23 11:00:00,35.6,29.7,30.15,NNW,338,2.2,2.2,79,0.01,,,0.01,WUHU216HW,2013-10-23 16:00:00,
2013-10-23 11:05:00,35.6,29.7,30.15,NNW,338,2.0,2.2,79,0.01,,,0.01,WUHU216HW,2013-10-23 16:05:00,
2013-10-23 11:10:00,35.6,29.7,30.15,NNW,338,2.0,2.0,79,0.01,,,0.01,WUHU216HW,2013-10-23 16:10:00,
2013-10-23 11:30:00,36.2,30.0,30.15,WNW,293,1.1,1.1,78,0.00,,,0.01,WUHU216HW,2013-10-23 16:30:00,
2013-10-23 11:35:00,36.2,30.0,30.15,WNW,293,1.1,1.1,78,0.00,,,0.01,WUHU216HW,2013-10-23 16:35:00,
2013-10-23 12:00:00,37.6,30.4,30.15,NNW,338,1.8,1.8,75,0.01,,,0.01,WUHU216HW,2013-10-23 17:00:00,
2013-10-23 12:05:00,37.6,30.4,30.15,NNW,338,0.7,1.8,75,0.01,,,0.02,WUHU216HW,2013-10-23 17:05:00,
2013-10-23 12:10:00,37.6,30.4,30.15,NNW,338,0.7,0.7,75,0.01,,,0.02,WUHU216HW,2013-10-23 17:10:00,
2013-10-23 12:30:00,38.2,29.6,30.15,North,0,1.1,1.1,71,0.01,,,0.02,WUHU216HW,2013-10-23 17:30:00,
2013-10-23 12:35:00,38.2,29.6,30.15,North,0,1.1,1.1,71,0.01,,,0.02,WUHU216HW,2013-10-23 17:35:00,
2013-10-23 13:00:00,38.3,28.7,30.14,WSW,248,0.4,0.4,68,0.01,,,0.02,WUHU216HW,2013-10-23 18:00:00,
2013-10-23 13:05:00,38.3,28.7,30.14,WSW,248,0.4,0.4,68,0.01,,,0.03,WUHU216HW,2013-10-23 18:05:00,
2013-10-23 13:10:00,38.3,28.7,30.14,WSW,248,0.4,0.4,68,0.01,,,0.03,WUHU216HW,2013-10-23 18:10:00,
2013-10-23 13:30:00,38.7,28.3,30.14,WSW,248,3.4,3.4,66,0.01,,,0.03,WUHU216HW,2013-10-23 18:30:00,
2013-10-23 13:35:00,38.7,28.3,30.14,WSW,248,3.4,3.4,66,0.01,,,0.03,WUHU216HW,2013-10-23 18:35:00,
2013-10-23 14:00:00,36.7,26.5,30.14,NNW,338,1.1,1.1,66,0.00,,,0.03,WUHU216HW,2013-10-23 19:00:00,
2013-10-23 14:05:00,36.7,26.5,30.14,NNW,338,1.1,1.1,66,0.00,,,0.03,WUHU216HW,2013-10-23 19:05:00,
2013-10-23 14:30:00,37.1,25.7,30.14,WNW,293,3.6,3.6,63,0.00,,,0.03,WUHU216HW,2013-10-23 19:30:00,
2013-10-23 14:35:00,37.1,25.7,30.14,WNW,293,3.6,3.6,63,0.00,,,0.03,WUHU216HW,2013-10-23 19:35:00,
2013-10-23 15:00:00,37.1,24.5,30.14,NNW,338,1.1,1.1,60,0.00,,,0.03,WUHU216HW,2013-10-23 20:00:00,
2013-10-23 15:05:00,37.1,24.5,30.14,NNW,338,1.1,1.1,60,0.00,,,0.03,WUHU216HW,2013-10-23 20:05:00,
2013-10-23 15:30:00,37.6,24.6,30.14,WNW,293,2.9,2.9,59,0.00,,,0.03,WUHU216HW,2013-10-23 20:30:00,
2013-10-23 15:35:00,37.6,24.6,30.14,WNW,293,2.9,2.9,59,0.00,,,0.03,WUHU216HW,2013-10-23 20:35:00,
2013-10-23 16:00:00,36.7,25.3,30.16,West,270,1.1,1.1,63,0.00,,,0.03,WUHU216HW,2013-10-23 21:00:00,
2013-10-23 16:05:00,36.7,25.3,30.16,West,270,1.1,1.1,63,0.00,,,0.03,WUHU216HW,2013-10-23 21:05:00,
2013-10-23 16:30:00,36.4,26.1,30.16,WNW,293,1.8,1.8,66,0.00,,,0.03,WUHU216HW,2013-10-23 21:30:00,
2013-10-23 16:35:00,36.4,26.1,30.16,WNW,293,1.8,1.8,66,0.00,,,0.03,WUHU216HW,2013-10-23 21:35:00,
2013-10-23 17:00:00,36.0,26.8,30.17,North,0,0.4,0.4,69,0.00,,,0.03,WUHU216HW,2013-10-23 22:00:00,
2013-10-23 17:05:00,36.0,26.8,30.17,North,0,0.4,0.4,69,0.00,,,0.03,WUHU216HW,2013-10-23 22:05:00,
2013-10-23 17:30:00,35.1,25.9,30.17,NW,315,1.6,1.6,69,0.00,,,0.03,WUHU216HW,2013-10-23 22:30:00,
2013-10-23 17:35:00,35.1,25.9,30.17,NW,315,1.6,1.6,69,0.00,,,0.03,WUHU216HW,2013-10-23 22:35:00,
2013-10-23 18:00:00,34.2,25.0,30.17,NW,315,0.9,0.9,69,0.00,,,0.03,WUHU216HW,2013-10-23 23:00:00,
2013-10-23 18:05:00,34.2,25.0,30.17,NW,315,0.9,0.9,69,0.00,,,0.03,WUHU216HW,2013-10-23 23:05:00,
2013-10-23 18:30:00,32.9,24.2,30.17,NW,315,0.4,0.4,70,0.00,,,0.03,WUHU216HW,2013-10-23 23:30:00,
2013-10-23 18:35:00,32.9,24.2,30.17,NW,315,0.4,0.4,70,0.00,,,0.03,WUHU216HW,2013-10-23 23:35:00,
2013-10-23 19:00:00,31.9,23.6,30.18,NW,315,0.2,0.2,71,0.00,,,0.03,WUHU216HW,2013-10-24 00:00:00,
2013-10-23 19:05:00,31.9,23.6,30.18,NW,315,0.2,0.2,71,0.00,,,0.03,WUHU216HW,2013-10-24 00:05:00,
2013-10-23 19:30:00,32.2,24.6,30.19,NW,315,0.4,0.4,73,0.00,,,0.03,WUHU216HW,2013-10-24 00:30:00,
2013-10-23 19:35:00,32.2,24.6,30.19,NW,315,0.4,0.4,73,0.00,,,0.03,WUHU216HW,2013-10-24 00:35:00,
2013-10-23 20:00:00,32.8,24.7,30.19,WNW,293,0.4,0.4,72,0.00,,,0.03,WUHU216HW,2013-10-24 01:00:00,
2013-10-23 20:05:00,32.8,24.7,30.19,WNW,293,0.4,0.4,72,0.00,,,0.03,WUHU216HW,2013-10-24 01:05:00,
2013-10-23 20:30:00,32.8,24.7,30.19,WNW,293,0.7,0.7,72,0.00,,,0.03,WUHU216HW,2013-10-24 01:30:00,
2013-10-23 20:35:00,32.8,24.7,30.19,WNW,293,0.7,0.7,72,0.00,,,0.03,WUHU216HW,2013-10-24 01:35:00,
2013-10-23 21:00:00,32.8,24.4,30.18,North,0,1.1,1.1,71,0.00,,,0.03,WUHU216HW,2013-10-24 02:00:00,
2013-10-23 21:05:00,32.8,24.4,30.18,North,0,1.1,1.1,71,0.00,,,0.03,WUHU216HW,2013-10-24 02:05:00,
2013-10-23 21:30:00,32.8,24.7,30.19,WNW,293,1.8,1.8,72,0.00,,,0.03,WUHU216HW,2013-10-24 02:30:00,
2013-10-23 21:35:00,32.8,24.7,30.19,WNW,293,1.8,1.8,72,0.00,,,0.03,WUHU216HW,2013-10-24 02:35:00,
2013-10-23 22:00:00,32.8,25.0,30.19,NNW,338,1.3,1.3,73,0.00,,,0.03,WUHU216HW,2013-10-24 03:00:00,
2013-10-23 22:05:00,32.8,25.0,30.19,WNW,293,2.9,2.9,73,0.00,,,0.03,WUHU216HW,2013-10-24 03:05:00,
2013-10-23 22:10:00,32.8,25.0,30.19,WNW,293,2.9,2.9,73,0.00,,,0.03,WUHU216HW,2013-10-24 03:10:00,
2013-10-23 22:30:00,32.8,25.0,30.19,WNW,293,0.4,0.4,73,0.00,,,0.03,WUHU216HW,2013-10-24 03:30:00,
2013-10-23 22:35:00,32.8,25.0,30.19,WNW,293,0.4,0.4,73,0.00,,,0.03,WUHU216HW,2013-10-24 03:35:00,
2013-10-23 23:00:00,32.6,25.2,30.19,North,0,1.1,1.1,74,0.00,,,0.03,WUHU216HW,2013-10-24 04:00:00,
2013-10-23 23:01:00,32.6,25.2,30.19,North,0,1.1,1.1,74,0.00,,,0.03,WUHU216HW,2013-10-24 04:01:00,
2013-10-23 23:02:00,32.6,25.2,30.19,North,0,1.1,1.1,74,0.00,,,0.03,WUHU216HW,2013-10-24 04:02:00,
2013-10-23 23:07:00,32.6,25.2,30.19,North,0,1.1,1.1,74,0.00,,,0.03,WUHU216HW,2013-10-24 04:07:00,
2013-10-23 23:30:00,32.2,25.2,30.19,West,270,1.3,1.3,75,0.00,,,0.03,WUHU216HW,2013-10-24 04:30:00,
2013-10-23 23:35:00,32.2,25.2,30.19,West,270,1.3,1.3,75,0.00,,,0.03,WUHU216HW,2013-10-24 04:35:00,